createdAt,value
2023-05-21T00:01:49.004Z,12.88
2023-05-21T00:04:15.856Z,14.57
2023-05-21T00:06:42.349Z,14.27
2023-05-21T00:09:09.007Z,12.95
2023-05-21T00:11:36.287Z,15.70
2023-05-21T00:14:02.908Z,12.00
2023-05-21T00:16:29.581Z,12.43
2023-05-21T00:18:56.143Z,14.18
2023-05-21T00:21:22.746Z,14.85
2023-05-21T00:23:50.054Z,17.08
2023-05-21T00:26:16.564Z,13.55
2023-05-21T00:28:43.410Z,13.13
2023-05-21T00:31:10.066Z,12.07
2023-05-21T00:33:36.587Z,12.98
2023-05-21T00:36:03.274Z,12.95
2023-05-21T00:38:29.945Z,12.90
2023-05-21T00:40:56.560Z,12.13
2023-05-21T00:43:25.149Z,13.98
2023-05-21T00:45:51.970Z,15.20
2023-05-21T00:48:18.667Z,18.33
2023-05-21T00:50:45.154Z,14.50
2023-05-21T00:53:12.487Z,13.70
2023-05-21T00:55:40.112Z,15.07
2023-05-21T00:58:07.824Z,15.60
2023-05-21T01:00:35.746Z,15.13
2023-05-21T01:03:02.840Z,17.60
2023-05-21T01:05:29.647Z,14.95
2023-05-21T01:07:57.455Z,15.20
2023-05-21T01:10:27.681Z,14.70
2023-05-21T01:12:55.952Z,14.52
2023-05-21T01:15:23.335Z,16.65
2023-05-21T01:17:51.285Z,16.05
2023-05-21T01:20:20.004Z,19.27
2023-05-21T01:22:56.466Z,15.98
2023-05-21T01:25:23.667Z,14.95
2023-05-21T01:27:51.023Z,17.15
2023-05-21T01:30:19.482Z,15.05
2023-05-21T01:33:03.553Z,14.90
2023-05-21T01:35:35.263Z,17.63
2023-05-21T01:38:22.201Z,16.05
2023-05-21T01:41:04.153Z,15.48
2023-05-21T01:43:37.378Z,19.10
2023-05-21T01:46:05.635Z,20.27
2023-05-21T01:48:32.598Z,20.05
2023-05-21T01:51:05.201Z,19.55
2023-05-21T01:53:32.614Z,17.83
2023-05-21T01:55:59.211Z,19.33
2023-05-21T01:58:25.928Z,18.50
2023-05-21T02:00:54.231Z,19.20
2023-05-21T02:03:21.617Z,16.42
2023-05-21T02:05:48.253Z,17.45
2023-05-21T02:08:14.782Z,18.30
2023-05-21T02:10:42.020Z,16.42
2023-05-21T02:13:10.095Z,17.23
2023-05-21T02:15:37.091Z,18.15
2023-05-21T02:18:04.157Z,18.25
2023-05-21T02:20:38.147Z,13.70
2023-05-21T02:23:04.645Z,20.33
2023-05-21T02:25:31.770Z,17.90
2023-05-21T02:27:58.263Z,14.82
2023-05-21T02:30:24.867Z,19.05
2023-05-21T02:32:51.789Z,17.92
2023-05-21T02:35:18.393Z,18.35
2023-05-21T02:37:45.088Z,19.20
2023-05-21T02:40:12.134Z,15.05
2023-05-21T02:42:40.495Z,17.92
2023-05-21T02:45:11.841Z,15.85
2023-05-21T02:47:38.894Z,18.40
2023-05-21T02:50:07.438Z,23.63
2023-05-21T02:52:34.278Z,19.45
2023-05-21T02:55:00.839Z,17.40
2023-05-21T02:57:27.514Z,17.33
2023-05-21T02:59:54.205Z,17.02
2023-05-21T03:02:20.827Z,26.15
2023-05-21T03:04:47.419Z,17.35
2023-05-21T03:07:15.699Z,22.13
2023-05-21T03:09:42.369Z,18.15
2023-05-21T03:12:09.246Z,18.15
2023-05-21T03:14:35.887Z,20.10
2023-05-21T03:17:03.057Z,16.05
2023-05-21T03:19:29.728Z,20.45
2023-05-21T03:21:56.454Z,17.92
2023-05-21T03:24:23.298Z,15.13
2023-05-21T03:26:49.915Z,15.60
2023-05-21T03:29:16.433Z,15.70
2023-05-21T03:31:43.210Z,19.25
2023-05-21T03:34:09.729Z,20.00
2023-05-21T03:36:36.435Z,18.13
2023-05-21T03:39:03.362Z,15.38
2023-05-21T03:41:30.090Z,18.73
2023-05-21T03:43:56.805Z,18.27
2023-05-21T03:46:23.426Z,25.88
2023-05-21T03:48:50.042Z,21.05
2023-05-21T03:51:16.661Z,19.40
2023-05-21T03:53:43.428Z,17.98
2023-05-21T03:56:10.255Z,18.73
2023-05-21T03:58:36.964Z,17.08
2023-05-21T04:01:03.691Z,18.52
2023-05-21T04:03:31.323Z,20.10
2023-05-21T04:05:57.886Z,18.83
2023-05-21T04:08:24.389Z,19.80
2023-05-21T04:10:51.355Z,20.48
2023-05-21T04:13:21.316Z,20.30
2023-05-21T04:15:47.942Z,17.90
2023-05-21T04:18:14.809Z,20.90
2023-05-21T04:20:41.559Z,19.77
2023-05-21T04:23:08.172Z,20.73
2023-05-21T04:25:35.253Z,20.55
2023-05-21T04:28:01.876Z,16.10
2023-05-21T04:30:28.462Z,14.95
2023-05-21T04:32:55.048Z,16.33
2023-05-21T04:35:21.814Z,18.83
2023-05-21T04:37:48.499Z,18.13
2023-05-21T04:40:15.314Z,19.10
2023-05-21T04:42:41.861Z,18.55
2023-05-21T04:45:09.089Z,21.73
2023-05-21T04:47:35.970Z,17.42
2023-05-21T04:50:02.956Z,26.55
2023-05-21T04:52:29.356Z,18.27
2023-05-21T04:54:56.109Z,18.65
2023-05-21T04:57:22.794Z,17.42
2023-05-21T04:59:49.499Z,16.92
2023-05-21T05:02:16.348Z,17.27
2023-05-21T05:04:43.039Z,16.35
2023-05-21T05:07:09.941Z,18.55
2023-05-21T05:09:36.640Z,18.65
2023-05-21T05:12:03.360Z,17.73
2023-05-21T05:14:30.290Z,16.92
2023-05-21T05:16:57.027Z,20.08
2023-05-21T05:19:23.596Z,18.25
2023-05-21T05:21:50.195Z,16.13
2023-05-21T05:24:16.986Z,17.80
2023-05-21T05:26:43.708Z,15.80
2023-05-21T05:29:10.236Z,17.48
2023-05-21T05:31:37.133Z,21.83
2023-05-21T05:34:03.664Z,16.77
2023-05-21T05:36:30.179Z,18.70
2023-05-21T05:38:57.011Z,17.73
2023-05-21T05:41:23.804Z,19.17
2023-05-21T05:43:50.385Z,22.40
2023-05-21T05:46:17.239Z,19.08
2023-05-21T05:48:43.917Z,16.38
2023-05-21T05:51:10.520Z,18.50
2023-05-21T05:53:37.241Z,17.23
2023-05-21T05:56:04.566Z,20.45
2023-05-21T05:58:31.094Z,18.05
2023-05-21T06:00:57.657Z,15.13
2023-05-21T06:03:24.383Z,16.98
2023-05-21T06:05:51.337Z,15.43
2023-05-21T06:08:17.769Z,14.38
2023-05-21T06:10:44.510Z,17.10
2023-05-21T06:13:11.106Z,14.90
2023-05-21T06:15:37.872Z,15.30
2023-05-21T06:18:04.679Z,17.17
2023-05-21T06:20:31.358Z,17.13
2023-05-21T06:22:57.977Z,16.45
2023-05-21T06:25:24.676Z,16.02
2023-05-21T06:27:51.908Z,16.77
2023-05-21T06:30:18.592Z,20.55
2023-05-21T06:32:45.304Z,16.67
2023-05-21T06:35:11.880Z,17.15
2023-05-21T06:37:38.427Z,14.00
2023-05-21T06:40:05.475Z,14.85
2023-05-21T06:42:32.043Z,14.10
2023-05-21T06:44:59.420Z,14.52
2023-05-21T06:47:26.234Z,13.23
2023-05-21T06:49:52.879Z,17.63
2023-05-21T06:52:19.469Z,16.40
2023-05-21T06:54:46.984Z,19.52
2023-05-21T06:57:15.181Z,15.05
2023-05-21T06:59:41.739Z,14.13
2023-05-21T07:02:08.400Z,15.07
2023-05-21T07:04:34.993Z,14.90
2023-05-21T07:07:02.786Z,15.18
2023-05-21T07:09:29.435Z,13.93
2023-05-21T07:11:56.050Z,13.70
2023-05-21T07:14:23.758Z,14.27
2023-05-21T07:16:50.402Z,13.88
2023-05-21T07:19:17.134Z,15.05
2023-05-21T07:21:43.990Z,14.82
2023-05-21T07:24:10.857Z,14.27
2023-05-21T07:26:37.489Z,12.73
2023-05-21T07:29:04.046Z,14.40
2023-05-21T07:31:30.487Z,14.50
2023-05-21T07:33:57.085Z,16.80
2023-05-21T07:36:23.957Z,13.30
2023-05-21T07:38:50.600Z,13.68
2023-05-21T07:41:18.530Z,13.10
2023-05-21T07:43:45.509Z,12.88
2023-05-21T07:46:12.296Z,11.93
2023-05-21T07:48:38.958Z,12.43
2023-05-21T07:51:06.035Z,14.23
2023-05-21T07:53:32.805Z,11.95
2023-05-21T07:56:00.580Z,10.00
2023-05-21T07:58:27.185Z,10.23
2023-05-21T08:00:53.922Z,9.88
2023-05-21T08:03:20.787Z,10.98
2023-05-21T08:05:47.922Z,10.02
2023-05-21T08:08:20.678Z,13.52
2023-05-21T08:10:47.517Z,10.18
2023-05-21T08:13:16.037Z,12.27
2023-05-21T08:15:42.845Z,11.30
2023-05-21T08:18:09.414Z,12.25
2023-05-21T08:20:36.269Z,10.98
2023-05-21T08:23:03.091Z,10.57
2023-05-21T08:25:30.311Z,12.73
2023-05-21T08:27:58.764Z,13.55
2023-05-21T08:30:25.207Z,11.90
2023-05-21T08:32:51.867Z,11.00
2023-05-21T08:35:18.767Z,11.23
2023-05-21T08:37:45.219Z,11.32
2023-05-21T08:40:12.640Z,12.18
2023-05-21T08:42:48.270Z,10.90
2023-05-21T08:45:20.534Z,11.55
2023-05-21T08:47:48.342Z,10.52
2023-05-21T08:50:17.212Z,10.63
2023-05-21T08:52:43.707Z,11.82
2023-05-21T08:55:14.099Z,10.80
2023-05-21T08:57:44.643Z,13.02
2023-05-21T09:00:11.773Z,11.75
2023-05-21T09:02:39.051Z,10.90
2023-05-21T09:05:06.471Z,9.93
2023-05-21T09:07:40.048Z,9.98
2023-05-21T09:10:14.167Z,9.70
2023-05-21T09:12:40.714Z,10.23
2023-05-21T09:15:07.914Z,9.52
2023-05-21T09:17:36.075Z,12.50
2023-05-21T09:20:09.011Z,9.15
2023-05-21T09:22:37.322Z,12.45
2023-05-21T09:25:06.954Z,9.68
2023-05-21T09:27:34.697Z,9.10
2023-05-21T09:30:09.595Z,8.57
2023-05-21T09:32:36.263Z,9.30
2023-05-21T09:35:11.295Z,9.35
2023-05-21T09:37:39.816Z,7.97
2023-05-21T09:40:20.780Z,8.88
2023-05-21T09:42:49.846Z,8.82
2023-05-21T09:45:26.227Z,8.52
2023-05-21T09:47:54.698Z,9.15
2023-05-21T09:50:23.976Z,7.35
2023-05-21T09:52:51.468Z,7.78
2023-05-21T09:55:18.431Z,8.05
2023-05-21T09:57:50.587Z,7.72
2023-05-21T10:00:18.807Z,8.20
2023-05-21T10:02:47.108Z,7.82
2023-05-21T10:05:20.629Z,8.00
2023-05-21T10:07:52.467Z,10.85
2023-05-21T10:10:22.741Z,8.27
2023-05-21T10:15:24.565Z,7.70
2023-05-21T10:17:52.574Z,8.13
2023-05-21T10:20:20.202Z,7.70
2023-05-21T10:22:48.900Z,7.95
2023-05-21T10:25:16.213Z,7.57
2023-05-21T10:27:43.351Z,8.05
2023-05-21T10:30:10.605Z,8.45
2023-05-21T10:32:40.650Z,7.35
2023-05-21T10:35:08.925Z,6.97
2023-05-21T10:37:36.351Z,7.00
2023-05-21T10:40:03.052Z,10.57
2023-05-21T10:42:29.510Z,8.90
2023-05-21T10:45:11.866Z,7.88
2023-05-21T10:48:02.625Z,11.68
2023-05-21T10:50:54.182Z,9.13
2023-05-21T10:53:59.801Z,9.10
2023-05-21T10:56:38.947Z,6.85
2023-05-21T10:59:36.592Z,11.73
2023-05-21T11:02:05.912Z,8.93
2023-05-21T11:04:32.875Z,7.47
2023-05-21T11:07:01.513Z,7.85
2023-05-21T11:09:31.493Z,8.85
2023-05-21T11:11:59.829Z,7.97
2023-05-21T11:14:42.239Z,7.53
2023-05-21T11:17:39.352Z,8.57
2023-05-21T11:20:14.006Z,10.57
2023-05-21T11:22:40.559Z,7.82
2023-05-21T11:25:07.885Z,7.72
2023-05-21T11:27:37.050Z,6.82
2023-05-21T11:30:25.129Z,7.43
2023-05-21T11:33:10.428Z,6.78
2023-05-21T11:35:46.130Z,8.38
2023-05-21T11:38:13.189Z,8.95
2023-05-21T11:40:51.040Z,7.75
2023-05-21T11:43:18.724Z,7.70
2023-05-21T11:45:45.364Z,8.10
2023-05-21T11:48:13.855Z,7.55
2023-05-21T11:50:41.091Z,6.82
2023-05-21T11:53:10.362Z,6.65
2023-05-21T11:55:40.381Z,7.72
2023-05-21T11:58:07.370Z,6.85
2023-05-21T12:00:39.087Z,7.10
2023-05-21T12:03:06.392Z,7.57
2023-05-21T12:05:50.366Z,9.15
2023-05-21T12:08:23.899Z,10.02
2023-05-21T12:10:58.586Z,8.98
2023-05-21T12:13:25.869Z,8.82
2023-05-21T12:15:54.765Z,7.70
2023-05-21T12:18:22.109Z,8.65
2023-05-21T12:20:52.364Z,6.68
2023-05-21T12:25:47.299Z,8.32
2023-05-21T12:28:14.321Z,5.95
2023-05-21T12:30:40.966Z,8.15
2023-05-21T12:33:13.784Z,7.50
2023-05-21T12:35:40.249Z,7.97
2023-05-21T12:38:07.489Z,6.60
2023-05-21T12:40:38.387Z,7.38
2023-05-21T12:43:07.059Z,6.97
2023-05-21T12:45:34.497Z,6.53
2023-05-21T12:48:02.176Z,7.60
2023-05-21T12:50:28.918Z,8.07
2023-05-21T12:52:55.926Z,8.60
2023-05-21T12:55:24.264Z,7.32
2023-05-21T12:57:50.948Z,7.97
2023-05-21T13:00:23.958Z,8.40
2023-05-21T13:02:52.805Z,7.55
2023-05-21T13:05:19.644Z,6.35
2023-05-21T13:07:46.835Z,6.20
2023-05-21T13:10:15.303Z,6.57
2023-05-21T13:12:44.206Z,8.20
2023-05-21T13:15:11.561Z,6.50
2023-05-21T13:17:38.223Z,7.93
2023-05-21T13:20:14.731Z,7.63
2023-05-21T13:22:46.814Z,7.75
2023-05-21T13:25:33.964Z,7.40
2023-05-21T13:28:04.697Z,8.68
2023-05-21T13:30:31.520Z,7.38
2023-05-21T13:32:58.374Z,6.93
2023-05-21T13:35:28.716Z,7.32
2023-05-21T13:37:55.405Z,8.27
2023-05-21T13:40:22.330Z,9.65
2023-05-21T13:42:50.375Z,8.65
2023-05-21T13:45:20.605Z,8.82
2023-05-21T13:50:17.524Z,5.82
2023-05-21T13:52:47.394Z,7.93
2023-05-21T13:55:14.356Z,8.27
2023-05-21T13:57:41.799Z,6.90
2023-05-21T14:00:09.262Z,8.23
2023-05-21T14:02:36.300Z,5.45
2023-05-21T14:05:03.672Z,5.93
2023-05-21T14:07:30.456Z,7.72
2023-05-21T14:10:00.193Z,9.68
2023-05-21T14:12:26.790Z,10.68
2023-05-21T14:14:53.421Z,8.55
2023-05-21T14:17:20.219Z,7.90
2023-05-21T14:19:46.811Z,10.05
2023-05-21T14:22:13.479Z,6.72
2023-05-21T14:24:40.558Z,6.70
2023-05-21T14:27:07.851Z,7.35
2023-05-21T14:29:34.431Z,8.52
2023-05-21T14:32:00.971Z,6.18
2023-05-21T14:34:27.680Z,8.27
2023-05-21T14:36:54.481Z,9.32
2023-05-21T14:39:21.018Z,7.43
2023-05-21T14:41:48.001Z,8.65
2023-05-21T14:44:14.860Z,7.20
2023-05-21T14:46:41.971Z,7.32
2023-05-21T14:49:08.818Z,6.90
2023-05-21T14:51:35.564Z,6.57
2023-05-21T14:54:02.286Z,6.53
2023-05-21T14:56:29.341Z,6.07
2023-05-21T14:58:56.379Z,8.43
2023-05-21T15:01:23.528Z,8.90
2023-05-21T15:03:50.616Z,6.68
2023-05-21T15:06:17.664Z,6.18
2023-05-21T15:08:44.408Z,6.65
2023-05-21T15:11:10.942Z,7.00
2023-05-21T15:13:38.760Z,5.38
2023-05-21T15:16:05.800Z,8.63
2023-05-21T15:18:32.367Z,5.40
2023-05-21T15:20:59.081Z,5.32
2023-05-21T15:23:25.625Z,6.28
2023-05-21T15:25:52.359Z,5.65
2023-05-21T15:28:19.322Z,5.78
2023-05-21T15:30:46.167Z,6.18
2023-05-21T15:33:12.935Z,6.60
2023-05-21T15:35:41.092Z,6.43
2023-05-21T15:38:08.195Z,5.53
2023-05-21T15:40:34.880Z,6.00
2023-05-21T15:43:01.659Z,6.10
2023-05-21T15:45:28.127Z,6.28
2023-05-21T15:47:54.942Z,7.57
2023-05-21T15:50:21.654Z,9.73
2023-05-21T15:52:50.389Z,11.45
2023-05-21T15:55:20.550Z,22.17
2023-05-21T15:57:46.985Z,24.40
2023-05-21T16:00:13.910Z,8.52
2023-05-21T16:02:40.867Z,5.45
2023-05-21T16:05:09.293Z,6.35
2023-05-21T16:07:37.957Z,7.32
2023-05-21T16:10:06.267Z,8.45
2023-05-21T16:12:33.471Z,5.60
2023-05-21T16:15:00.467Z,6.18
2023-05-21T16:17:27.754Z,6.40
2023-05-21T16:19:54.411Z,5.45
2023-05-21T16:22:29.448Z,6.65
2023-05-21T16:24:55.993Z,7.60
2023-05-21T16:27:22.813Z,8.45
2023-05-21T16:30:03.040Z,5.97
2023-05-21T16:32:29.700Z,8.95
2023-05-21T16:34:56.353Z,7.75
2023-05-21T16:37:23.014Z,7.13
2023-05-21T16:39:49.594Z,7.00
2023-05-21T16:42:16.148Z,8.63
2023-05-21T16:44:43.003Z,7.40
2023-05-21T16:47:09.554Z,8.23
2023-05-21T16:49:37.862Z,7.88
2023-05-21T16:52:05.002Z,7.57
2023-05-21T16:54:31.632Z,8.80
2023-05-21T16:57:01.401Z,7.72
2023-05-21T16:59:53.535Z,7.03
2023-05-21T17:02:22.208Z,8.18
2023-05-21T17:04:49.192Z,6.75
2023-05-21T17:07:16.434Z,7.75
2023-05-21T17:09:43.257Z,11.07
2023-05-21T17:12:41.988Z,8.75
2023-05-21T17:15:33.027Z,8.95
2023-05-21T17:18:01.529Z,7.53
2023-05-21T17:20:28.169Z,9.40
2023-05-21T17:22:55.054Z,7.57
2023-05-21T17:25:29.811Z,8.80
2023-05-21T17:27:56.441Z,7.70
2023-05-21T17:30:22.946Z,8.15
2023-05-21T17:32:50.572Z,7.93
2023-05-21T17:35:17.822Z,9.02
2023-05-21T17:37:45.387Z,9.25
2023-05-21T17:40:12.348Z,8.60
2023-05-21T17:42:39.494Z,9.43
2023-05-21T17:45:06.600Z,13.40
2023-05-21T17:47:33.557Z,11.02
2023-05-21T17:50:00.720Z,8.57
2023-05-21T17:52:29.523Z,8.90
2023-05-21T17:54:56.458Z,9.52
2023-05-21T17:57:23.002Z,8.43
2023-05-21T17:59:49.657Z,7.60
2023-05-21T18:02:16.263Z,8.95
2023-05-21T18:04:44.330Z,8.48
2023-05-21T18:07:11.196Z,8.85
2023-05-21T18:09:38.153Z,9.75
2023-05-21T18:12:05.197Z,8.40
2023-05-21T18:14:33.060Z,10.90
2023-05-21T18:17:00.099Z,8.02
2023-05-21T18:19:26.893Z,8.88
2023-05-21T18:21:53.648Z,9.73
2023-05-21T18:24:20.272Z,8.90
2023-05-21T18:26:46.958Z,9.50
2023-05-21T18:29:13.768Z,8.35
2023-05-21T18:31:41.259Z,7.65
2023-05-21T18:34:07.908Z,8.40
2023-05-21T18:36:34.510Z,9.18
2023-05-21T18:39:01.366Z,8.75
2023-05-21T18:41:28.238Z,10.48
2023-05-21T18:43:54.802Z,8.98
2023-05-21T18:46:22.014Z,10.57
2023-05-21T18:48:48.669Z,10.75
2023-05-21T18:51:15.348Z,10.02
2023-05-21T18:53:41.983Z,10.90
2023-05-21T18:56:08.762Z,10.05
2023-05-21T18:58:35.514Z,11.40
2023-05-21T19:01:02.190Z,11.55
2023-05-21T19:03:29.215Z,11.95
2023-05-21T19:05:55.812Z,10.60
2023-05-21T19:08:22.436Z,10.45
2023-05-21T19:10:49.051Z,10.35
2023-05-21T19:13:15.647Z,15.70
2023-05-21T19:15:43.037Z,10.32
2023-05-21T19:18:10.703Z,10.02
2023-05-21T19:20:37.506Z,10.82
2023-05-21T19:23:06.111Z,8.90
2023-05-21T19:25:32.931Z,9.57
2023-05-21T19:28:00.247Z,9.57
2023-05-21T19:30:26.910Z,12.77
2023-05-21T19:32:53.934Z,12.50
2023-05-21T19:35:21.748Z,15.60
2023-05-21T19:37:48.803Z,11.57
2023-05-21T19:40:15.755Z,11.10
2023-05-21T19:42:42.711Z,10.43
2023-05-21T19:45:09.812Z,12.32
2023-05-21T19:47:36.582Z,11.18
2023-05-21T19:50:04.360Z,11.77
2023-05-21T19:52:31.361Z,15.20
2023-05-21T19:54:58.266Z,11.90
2023-05-21T19:57:25.014Z,12.63
2023-05-21T19:59:51.702Z,13.50
2023-05-21T20:02:18.567Z,10.57
2023-05-21T20:04:45.097Z,14.43
2023-05-21T20:07:11.924Z,16.70
2023-05-21T20:09:39.170Z,14.75
2023-05-21T20:12:06.321Z,17.33
2023-05-21T20:14:33.076Z,15.43
2023-05-21T20:17:03.002Z,19.88
2023-05-21T20:19:29.680Z,17.38
2023-05-21T20:21:56.668Z,16.17
2023-05-21T20:24:23.277Z,16.85
2023-05-21T20:26:49.882Z,16.90
2023-05-21T20:29:16.700Z,12.52
2023-05-21T20:31:44.192Z,15.35
2023-05-21T20:34:10.745Z,19.48
2023-05-21T20:36:38.929Z,16.38
2023-05-21T20:39:05.420Z,15.65
2023-05-21T20:41:32.027Z,15.13
2023-05-21T20:43:58.434Z,11.90
2023-05-21T20:46:25.226Z,13.07
2023-05-21T20:48:51.851Z,13.63
2023-05-21T20:51:18.673Z,15.40
2023-05-21T20:53:45.176Z,15.75
2023-05-21T20:56:11.674Z,15.82
2023-05-21T20:58:38.297Z,17.05
2023-05-21T21:01:04.937Z,14.63
2023-05-21T21:03:31.546Z,18.88
2023-05-21T21:05:58.462Z,14.55
2023-05-21T21:08:24.948Z,12.38
2023-05-21T21:10:51.472Z,14.60
2023-05-21T21:13:17.883Z,14.10
2023-05-21T21:15:44.486Z,13.48
2023-05-21T21:18:11.587Z,14.23
2023-05-21T21:20:38.570Z,14.95
2023-05-21T21:23:05.503Z,14.85
2023-05-21T21:25:32.233Z,13.63
2023-05-21T21:27:58.834Z,16.27
2023-05-21T21:30:25.345Z,14.27
2023-05-21T21:32:51.833Z,15.43
2023-05-21T21:35:18.847Z,16.60
2023-05-21T21:37:45.603Z,14.73
2023-05-21T21:40:12.811Z,17.02
2023-05-21T21:42:39.595Z,14.60
2023-05-21T21:45:07.091Z,18.38
2023-05-21T21:47:33.719Z,15.70
2023-05-21T21:50:00.255Z,15.73
2023-05-21T21:52:27.604Z,19.75
2023-05-21T21:54:55.338Z,19.60
2023-05-21T21:57:22.272Z,15.95
2023-05-21T21:59:48.864Z,16.63
2023-05-21T22:02:15.499Z,14.63
2023-05-21T22:04:42.253Z,17.60
2023-05-21T22:07:08.798Z,16.25
2023-05-21T22:09:35.545Z,21.63
2023-05-21T22:12:02.325Z,14.15
2023-05-21T22:14:28.942Z,16.33
2023-05-21T22:16:55.783Z,16.67
2023-05-21T22:19:22.632Z,18.20
2023-05-21T22:21:49.374Z,15.50
2023-05-21T22:24:30.786Z,17.63
2023-05-21T22:26:58.329Z,15.18
2023-05-21T22:29:24.829Z,17.35
2023-05-21T22:31:51.322Z,17.33
2023-05-21T22:34:17.956Z,17.35
2023-05-21T22:36:44.618Z,17.60
2023-05-21T22:39:11.367Z,15.73
2023-05-21T22:41:38.063Z,16.02
2023-05-21T22:44:04.694Z,17.98
2023-05-21T22:46:31.321Z,17.38
2023-05-21T22:48:57.803Z,15.80
2023-05-21T22:51:24.333Z,17.85
2023-05-21T22:53:50.927Z,16.67
2023-05-21T22:56:17.506Z,15.20
2023-05-21T22:58:44.003Z,18.42
2023-05-21T23:01:10.737Z,15.60
2023-05-21T23:03:37.254Z,15.45
2023-05-21T23:06:03.972Z,16.13
2023-05-21T23:08:30.465Z,20.73
2023-05-21T23:10:56.893Z,18.90
2023-05-21T23:13:23.341Z,20.30
2023-05-21T23:15:50.006Z,18.30
2023-05-21T23:18:16.511Z,17.67
2023-05-21T23:20:43.445Z,17.90
2023-05-21T23:23:10.263Z,16.60
2023-05-21T23:25:38.263Z,20.23
2023-05-21T23:28:05.048Z,17.75
2023-05-21T23:30:31.676Z,18.25
2023-05-21T23:32:58.488Z,18.45
2023-05-21T23:35:25.095Z,18.98
2023-05-21T23:37:51.611Z,18.58
2023-05-21T23:40:18.124Z,18.35
2023-05-21T23:42:44.716Z,15.45
2023-05-21T23:45:11.838Z,16.55
2023-05-21T23:47:38.450Z,16.70
2023-05-21T23:50:05.911Z,18.58
2023-05-21T23:52:32.599Z,19.73
2023-05-21T23:54:59.479Z,18.00
2023-05-21T23:57:25.987Z,18.40
2023-05-21T23:59:52.993Z,19.52
